createdAt,value
2018-09-12T00:00:01.448Z,18.61
2018-09-12T00:05:01.827Z,18.55
2018-09-12T00:10:01.175Z,18.51
2018-09-12T00:15:01.483Z,18.41
2018-09-12T00:20:01.889Z,18.36
2018-09-12T00:25:01.310Z,18.27
2018-09-12T00:30:01.692Z,18.25
2018-09-12T00:35:02.153Z,18.21
2018-09-12T00:40:02.165Z,18.17
2018-09-12T00:45:01.503Z,18.11
2018-09-12T00:50:01.855Z,18.08
2018-09-12T00:55:01.406Z,18.04
2018-09-12T01:00:02.497Z,17.96
2018-09-12T01:05:01.974Z,17.85
2018-09-12T01:10:01.392Z,17.82
2018-09-12T01:15:01.699Z,17.8
2018-09-12T01:20:02.072Z,17.77
2018-09-12T01:25:01.514Z,17.7
2018-09-12T01:30:01.859Z,17.7
2018-09-12T01:35:01.289Z,17.67
2018-09-12T01:40:01.658Z,17.61
2018-09-12T01:45:01.915Z,17.58
2018-09-12T01:50:01.214Z,17.47
2018-09-12T01:55:01.526Z,17.37
2018-09-12T02:00:01.807Z,17.29
2018-09-12T02:05:01.128Z,17.16
2018-09-12T02:10:01.510Z,17.01
2018-09-12T02:15:01.906Z,16.84
2018-09-12T02:20:01.257Z,16.72
2018-09-12T02:25:01.623Z,16.59
2018-09-12T02:30:02.108Z,16.52
2018-09-12T02:35:01.592Z,16.42
2018-09-12T02:40:01.775Z,16.32
2018-09-12T02:45:01.173Z,16.32
2018-09-12T02:50:01.564Z,16.34
2018-09-12T02:55:01.964Z,16.34
2018-09-12T03:00:01.922Z,16.37
2018-09-12T03:05:01.268Z,16.4
2018-09-12T03:10:01.651Z,16.36
2018-09-12T03:15:01.958Z,16.31
2018-09-12T03:20:01.248Z,16.18
2018-09-12T03:25:01.664Z,16.02
2018-09-12T03:30:01.969Z,15.83
2018-09-12T03:35:01.249Z,15.56
2018-09-12T03:40:01.490Z,15.51
2018-09-12T03:45:01.746Z,15.56
2018-09-12T03:50:02.123Z,15.82
2018-09-12T03:55:01.544Z,15.96
2018-09-12T04:00:01.857Z,16.27
2018-09-12T04:05:01.224Z,16.45
2018-09-12T04:10:01.550Z,16.46
2018-09-12T04:15:01.869Z,16.47
2018-09-12T04:20:01.171Z,16.45
2018-09-12T04:25:01.521Z,16.39
2018-09-12T04:30:02.022Z,16.21
2018-09-12T04:35:01.447Z,16.01
2018-09-12T04:40:01.561Z,15.91
2018-09-12T04:45:01.863Z,15.82
2018-09-12T04:50:01.235Z,15.72
2018-09-12T04:55:01.632Z,15.67
2018-09-12T05:00:01.956Z,15.77
2018-09-12T05:05:01.355Z,15.78
2018-09-12T05:10:01.795Z,15.73
2018-09-12T05:15:01.077Z,15.68
2018-09-12T05:20:01.329Z,15.51
2018-09-12T05:25:01.771Z,15.33
2018-09-12T05:30:01.130Z,15.09
2018-09-12T05:35:01.481Z,14.91
2018-09-12T05:40:01.872Z,14.78
2018-09-12T05:45:01.199Z,14.68
2018-09-12T05:50:01.540Z,14.54
2018-09-12T05:55:01.126Z,14.47
2018-09-12T06:00:01.418Z,14.44
2018-09-12T06:05:01.878Z,14.53
2018-09-12T06:10:01.248Z,14.64
2018-09-12T06:15:01.567Z,14.99
2018-09-12T06:20:01.983Z,15.8
2018-09-12T06:25:01.342Z,16.42
2018-09-12T06:30:01.638Z,16.41
2018-09-12T06:35:01.990Z,16.37
2018-09-12T06:40:01.423Z,16.4
2018-09-12T06:45:01.720Z,16.55
2018-09-12T06:50:02.011Z,16.67
2018-09-12T06:55:01.415Z,17.38
2018-09-12T07:00:01.748Z,18.06
2018-09-12T07:05:01.132Z,18.67
2018-09-12T07:10:01.398Z,18.89
2018-09-12T07:15:01.734Z,19.03
2018-09-12T07:20:01.098Z,19.28
2018-09-12T07:25:01.449Z,19.52
2018-09-12T07:30:01.727Z,19.81
2018-09-12T07:35:02.111Z,20.01
2018-09-12T07:40:01.551Z,20.21
2018-09-12T07:45:01.837Z,20.79
2018-09-12T07:50:01.088Z,21.44
2018-09-12T07:55:01.402Z,21.63
2018-09-12T08:00:01.730Z,21.83
2018-09-12T08:05:01.419Z,22.16
2018-09-12T08:10:01.940Z,22.41
2018-09-12T08:15:01.727Z,22.72
2018-09-12T08:20:02.084Z,22.98
2018-09-12T08:25:01.494Z,22.87
2018-09-12T08:30:01.794Z,23.13
2018-09-12T08:35:01.131Z,23.23
2018-09-12T08:40:01.408Z,23.1
2018-09-12T08:45:01.684Z,22.95
2018-09-12T08:50:01.999Z,22.67
2018-09-12T08:55:01.337Z,23.03
2018-09-12T09:00:01.641Z,23.02
2018-09-12T09:05:01.983Z,23.1
2018-09-12T09:10:01.403Z,23.1
2018-09-12T09:15:01.698Z,23.38
2018-09-12T09:20:02.066Z,23.74
2018-09-12T09:25:01.544Z,23.4
2018-09-12T09:30:01.946Z,23.38
2018-09-12T09:35:01.500Z,23.64
2018-09-12T09:40:01.276Z,23.72
2018-09-12T09:45:01.603Z,23.26
2018-09-12T09:50:01.895Z,23.24
2018-09-12T09:55:01.319Z,23.67
2018-09-12T10:00:01.767Z,24.32
2018-09-12T10:05:01.117Z,24.32
2018-09-12T10:10:01.399Z,23.96
2018-09-12T10:15:01.697Z,23.96
2018-09-12T10:20:02.044Z,23.6
2018-09-12T10:25:01.447Z,23.73
2018-09-12T10:30:01.721Z,24.24
2018-09-12T10:35:02.162Z,23.7
2018-09-12T10:40:01.581Z,23.96
2018-09-12T10:45:01.870Z,24.17
2018-09-12T10:50:01.154Z,23.72
2018-09-12T10:55:01.494Z,23.94
2018-09-12T11:00:01.820Z,24.31
2018-09-12T11:05:01.141Z,24.46
2018-09-12T11:10:01.408Z,24.7
2018-09-12T11:15:01.736Z,24.6
2018-09-12T11:20:02.135Z,24.86
2018-09-12T11:25:01.561Z,24.97
2018-09-12T11:30:01.907Z,25.03
2018-09-12T11:35:01.272Z,24.65
2018-09-12T11:40:01.650Z,24.95
2018-09-12T11:45:01.157Z,24.72
2018-09-12T11:50:01.417Z,24.42
2018-09-12T11:55:01.788Z,24.29
2018-09-12T12:00:02.106Z,24.24
2018-09-12T12:05:01.347Z,24.49
2018-09-12T12:10:01.713Z,24.6
2018-09-12T12:15:01.966Z,24.44
2018-09-12T12:20:01.319Z,24.49
2018-09-12T12:25:01.694Z,24.36
2018-09-12T12:30:01.998Z,24.49
2018-09-12T12:35:01.319Z,24.78
2018-09-12T12:40:01.685Z,24.93
2018-09-12T12:45:01.937Z,25.03
2018-09-12T12:50:01.214Z,24.99
2018-09-12T12:55:01.559Z,25.18
2018-09-12T13:00:01.940Z,25.32
2018-09-12T13:05:01.258Z,25.15
2018-09-12T13:10:01.590Z,25.28
2018-09-12T13:15:01.912Z,25.14
2018-09-12T13:20:01.979Z,25.2
2018-09-12T13:25:01.261Z,25.18
2018-09-12T13:30:01.585Z,25.38
2018-09-12T13:35:02.043Z,25.42
2018-09-12T13:40:01.412Z,25.58
2018-09-12T13:45:01.714Z,25.53
2018-09-12T13:50:02.127Z,25.4
2018-09-12T13:55:01.590Z,25.42
2018-09-12T14:00:01.884Z,25.4
2018-09-12T14:05:01.184Z,25.48
2018-09-12T14:10:01.515Z,25.43
2018-09-12T14:15:01.786Z,25.35
2018-09-12T14:20:01.119Z,25.4
2018-09-12T14:25:01.566Z,25.45
2018-09-12T14:30:01.098Z,25.16
2018-09-12T14:35:01.404Z,25.22
2018-09-12T14:40:01.734Z,25.1
2018-09-12T14:45:02.048Z,25.04
2018-09-12T14:50:01.791Z,24.94
2018-09-12T14:55:01.153Z,25.06
2018-09-12T15:00:01.405Z,25.16
2018-09-12T15:05:02.187Z,25
2018-09-12T15:10:01.719Z,24.89
2018-09-12T15:15:01.991Z,24.8
2018-09-12T15:20:01.277Z,24.71
2018-09-12T15:25:01.647Z,24.68
2018-09-12T15:30:01.925Z,23.9
2018-09-12T15:35:01.284Z,23.13
2018-09-12T15:40:01.631Z,22.57
2018-09-12T15:45:01.933Z,22.37
2018-09-12T15:50:01.242Z,22.43
2018-09-12T15:55:01.564Z,22.21
2018-09-12T16:00:01.902Z,21.79
2018-09-12T16:05:01.223Z,21.36
2018-09-12T16:10:01.547Z,21.19
2018-09-12T16:15:01.823Z,20.87
2018-09-12T16:20:01.157Z,20.79
2018-09-12T16:25:01.475Z,20.81
2018-09-12T16:30:01.768Z,20.86
2018-09-12T16:35:02.185Z,20.73
2018-09-12T16:40:01.600Z,20.51
2018-09-12T16:45:01.943Z,20.33
2018-09-12T16:50:01.244Z,20.02
2018-09-12T16:55:01.548Z,19.81
2018-09-12T17:00:01.860Z,19.68
2018-09-12T17:05:01.182Z,19.56
2018-09-12T17:10:01.448Z,19.45
2018-09-12T17:15:01.801Z,19.38
2018-09-12T17:20:01.114Z,19.3
2018-09-12T17:25:01.525Z,19.14
2018-09-12T17:30:01.796Z,18.8
2018-09-12T17:35:01.171Z,18.73
2018-09-12T17:40:01.456Z,18.53
2018-09-12T17:45:01.720Z,18.42
2018-09-12T17:50:02.029Z,18.34
2018-09-12T17:55:01.507Z,18.22
2018-09-12T18:00:01.818Z,18.12
2018-09-12T18:05:01.143Z,17.97
2018-09-12T18:10:01.509Z,17.88
2018-09-12T18:15:01.772Z,17.69
2018-09-12T18:20:02.065Z,17.59
2018-09-12T18:25:01.339Z,17.5
2018-09-12T18:30:01.662Z,17.41
2018-09-12T18:35:02.037Z,17.25
2018-09-12T18:40:01.441Z,17.16
2018-09-12T18:45:01.757Z,16.95
2018-09-12T18:50:02.163Z,16.69
2018-09-12T18:55:01.535Z,16.56
2018-09-12T19:00:01.795Z,16.43
2018-09-12T19:05:01.103Z,16.34
2018-09-12T19:10:01.437Z,16.35
2018-09-12T19:15:01.687Z,16.35
2018-09-12T19:20:02.063Z,16.36
2018-09-12T19:25:01.472Z,16.37
2018-09-12T19:30:01.886Z,16.26
2018-09-12T19:35:01.334Z,16.26
2018-09-12T19:40:01.735Z,16.27
2018-09-12T19:45:01.112Z,16.21
2018-09-12T19:50:01.440Z,16.19
2018-09-12T19:55:01.848Z,16.24
2018-09-12T20:00:01.218Z,16.19
2018-09-12T20:05:01.589Z,16.12
2018-09-12T20:10:02.093Z,16.08
2018-09-12T20:15:02.023Z,16.1
2018-09-12T20:20:01.344Z,16.11
2018-09-12T20:25:01.810Z,16.08
2018-09-12T20:30:01.270Z,16.06
2018-09-12T20:35:02.135Z,16.04
2018-09-12T20:40:01.549Z,16
2018-09-12T20:45:02.035Z,15.98
2018-09-12T20:50:01.483Z,15.95
2018-09-12T20:55:01.918Z,15.96
2018-09-12T21:00:01.308Z,15.97
2018-09-12T21:05:01.703Z,15.99
2018-09-12T21:10:02.102Z,15.92
2018-09-12T21:15:01.498Z,15.91
2018-09-12T21:20:01.781Z,15.83
2018-09-12T21:25:02.166Z,15.72
2018-09-12T21:30:01.658Z,15.55
2018-09-12T21:35:02.064Z,15.4
2018-09-12T21:40:01.504Z,15.29
2018-09-12T21:45:02.036Z,15.21
2018-09-12T21:50:01.484Z,15.07
2018-09-12T21:55:01.920Z,14.94
2018-09-12T22:00:01.289Z,14.87
2018-09-12T22:05:01.719Z,14.97
2018-09-12T22:10:02.118Z,15.04
2018-09-12T22:15:01.546Z,15.07
2018-09-12T22:20:02.113Z,15.1
2018-09-12T22:25:01.509Z,15.1
2018-09-12T22:30:01.928Z,15.15
2018-09-12T22:35:01.269Z,15.15
2018-09-12T22:40:01.739Z,15.16
2018-09-12T22:45:01.141Z,15.17
2018-09-12T22:50:01.494Z,15.19
2018-09-12T22:55:01.896Z,15.15
2018-09-12T23:00:01.335Z,15.19
2018-09-12T23:05:01.783Z,15.17
2018-09-12T23:10:01.166Z,15.17
2018-09-12T23:15:01.687Z,15.18
2018-09-12T23:20:02.156Z,15.15
2018-09-12T23:25:01.635Z,15
2018-09-12T23:30:02.092Z,14.93
2018-09-12T23:35:01.561Z,14.89
2018-09-12T23:40:01.973Z,14.85
2018-09-12T23:45:01.447Z,14.89
2018-09-12T23:50:01.988Z,14.95
2018-09-12T23:55:01.453Z,14.97
